Cross Key, Florida
Current Conditions -  °F | °C
As of 3:58 AM on Thursday 27 Nov 2014 (Local Time) from KHST Reporting Station
Clear Clear  
Wind Chill: 56°   Ceiling: Unl
Heat Index: 56°   Visibility: 10mi
Dew Point: 49°   Wind: 13mph
Humidity: 77%   Direction: 320°NW
Pressure: 30.18"   Gusts: NA
Location:  25.2553°N, 80.3918°W
Report Text: KHST 270858Z AUTO 32011KT 10SM CLR 13/09 A3018 RMK AO2 SLP223 T01310092 50005 $
Loading
Personal Weather Stations






























Interactive Weather Map New forecast layout! Learn more

10-Day Weather Forecast

Advertisements
Track Severe Weather on mobile